createdAt,value
2018-10-01T00:01:39.645Z,100.00
2018-10-01T00:04:43.963Z,100.00
2018-10-01T00:07:48.272Z,100.00
2018-10-01T00:10:52.648Z,100.00
2018-10-01T00:13:56.972Z,100.00
2018-10-01T00:17:01.302Z,100.00
2018-10-01T00:20:10.858Z,100.00
2018-10-01T00:23:15.215Z,100.00
2018-10-01T00:26:19.536Z,100.00
2018-10-01T00:29:23.929Z,100.00
2018-10-01T00:32:28.239Z,100.00
2018-10-01T00:35:32.595Z,100.00
2018-10-01T00:38:37.108Z,100.00
2018-10-01T00:41:41.769Z,100.00
2018-10-01T00:44:46.136Z,100.00
2018-10-01T00:47:50.525Z,100.00
2018-10-01T00:50:54.891Z,100.00
2018-10-01T00:53:59.228Z,100.00
2018-10-01T00:57:03.556Z,100.00
2018-10-01T01:00:07.970Z,100.00
2018-10-01T01:03:12.296Z,100.00
2018-10-01T01:06:16.661Z,100.00
2018-10-01T01:09:21.107Z,100.00
2018-10-01T01:12:25.466Z,100.00
2018-10-01T01:15:29.808Z,100.00
2018-10-01T01:18:34.166Z,100.00
2018-10-01T01:21:39.602Z,100.00
2018-10-01T01:24:43.948Z,100.00
2018-10-01T01:27:48.430Z,100.00
2018-10-01T01:30:52.750Z,100.00
2018-10-01T01:33:57.154Z,100.00
2018-10-01T01:37:01.516Z,100.00
2018-10-01T01:40:06.542Z,100.00
2018-10-01T01:43:10.869Z,100.00
2018-10-01T01:46:15.221Z,100.00
2018-10-01T01:49:19.600Z,100.00
2018-10-01T01:52:23.940Z,100.00
2018-10-01T01:55:28.280Z,100.00
2018-10-01T01:58:32.776Z,100.00
2018-10-01T02:01:37.079Z,100.00
2018-10-01T02:04:41.396Z,100.00
2018-10-01T02:07:45.716Z,100.00
2018-10-01T02:10:50.060Z,100.00
2018-10-01T02:13:54.372Z,100.00
2018-10-01T02:16:58.678Z,100.00
2018-10-01T02:20:02.980Z,100.00
2018-10-01T02:23:07.511Z,100.00
2018-10-01T02:26:11.809Z,100.00
2018-10-01T02:29:16.160Z,100.00
2018-10-01T02:32:20.522Z,100.00
2018-10-01T02:35:24.818Z,100.00
2018-10-01T02:38:29.125Z,100.00
2018-10-01T02:41:33.421Z,100.00
2018-10-01T02:44:37.765Z,100.00
2018-10-01T02:47:42.085Z,100.00
2018-10-01T02:50:46.401Z,100.00
2018-10-01T02:53:56.048Z,100.00
2018-10-01T02:57:01.237Z,100.00
2018-10-01T03:00:06.907Z,100.00
2018-10-01T03:03:11.231Z,100.00
2018-10-01T03:06:15.525Z,100.00
2018-10-01T03:09:19.858Z,100.00
2018-10-01T03:12:24.225Z,100.00
2018-10-01T03:15:28.465Z,100.00
2018-10-01T03:18:32.859Z,100.00
2018-10-01T03:21:38.348Z,100.00
2018-10-01T03:24:42.683Z,100.00
2018-10-01T03:27:47.013Z,100.00
2018-10-01T03:30:51.431Z,100.00
2018-10-01T03:33:55.909Z,100.00
2018-10-01T03:37:00.240Z,100.00
2018-10-01T03:40:04.817Z,100.00
2018-10-01T03:43:10.866Z,100.00
2018-10-01T03:46:15.215Z,100.00
2018-10-01T03:49:19.540Z,100.00
2018-10-01T03:52:23.849Z,100.00
2018-10-01T03:55:28.149Z,100.00
2018-10-01T03:58:32.478Z,100.00
2018-10-01T04:01:36.814Z,100.00
2018-10-01T04:04:41.167Z,100.00
2018-10-01T04:07:45.474Z,100.00
2018-10-01T04:10:49.786Z,100.00
2018-10-01T04:13:54.090Z,100.00
2018-10-01T04:16:58.444Z,100.00
2018-10-01T04:20:03.177Z,100.00
2018-10-01T04:23:07.713Z,100.00
2018-10-01T04:26:12.311Z,100.00
2018-10-01T04:29:16.712Z,100.00
2018-10-01T04:32:21.032Z,100.00
2018-10-01T04:35:25.441Z,100.00
2018-10-01T04:38:29.813Z,100.00
2018-10-01T04:41:34.139Z,100.00
2018-10-01T04:44:38.440Z,100.00
2018-10-01T04:47:42.785Z,100.00
2018-10-01T04:50:47.130Z,100.00
2018-10-01T04:53:51.522Z,100.00
2018-10-01T04:56:55.861Z,100.00
2018-10-01T05:00:00.160Z,100.00
2018-10-01T05:03:04.530Z,100.00
2018-10-01T05:06:09.249Z,100.00
2018-10-01T05:09:13.558Z,100.00
2018-10-01T05:12:17.867Z,100.00
2018-10-01T05:15:22.172Z,100.00
2018-10-01T05:18:26.526Z,100.00
2018-10-01T05:21:30.840Z,100.00
2018-10-01T05:24:35.145Z,100.00
2018-10-01T05:27:39.488Z,100.00
2018-10-01T05:30:43.825Z,100.00
2018-10-01T05:33:48.138Z,100.00
2018-10-01T05:36:52.455Z,100.00
2018-10-01T05:39:56.825Z,100.00
2018-10-01T05:43:01.154Z,100.00
2018-10-01T05:46:05.518Z,100.00
2018-10-01T05:49:09.853Z,100.00
2018-10-01T05:52:14.213Z,100.00
2018-10-01T05:55:18.541Z,100.00
2018-10-01T05:58:22.907Z,100.00
2018-10-01T06:01:27.243Z,100.00
2018-10-01T06:04:31.576Z,100.00
2018-10-01T06:07:35.912Z,100.00
2018-10-01T06:10:40.255Z,100.00
2018-10-01T06:13:44.668Z,100.00
2018-10-01T06:16:48.971Z,100.00
2018-10-01T06:19:53.259Z,100.00
2018-10-01T06:22:57.586Z,100.00
2018-10-01T06:26:01.881Z,100.00
2018-10-01T06:29:06.210Z,100.00
2018-10-01T06:32:10.586Z,100.00
2018-10-01T06:35:14.871Z,100.00
2018-10-01T06:38:19.252Z,100.00
2018-10-01T06:41:23.782Z,100.00
2018-10-01T06:44:28.102Z,100.00
2018-10-01T06:47:32.398Z,100.00
2018-10-01T06:50:36.707Z,100.00
2018-10-01T06:53:41.063Z,100.00
2018-10-01T06:56:45.405Z,100.00
2018-10-01T06:59:49.736Z,100.00
2018-10-01T07:02:54.048Z,100.00
2018-10-01T07:05:58.825Z,100.00
2018-10-01T07:09:03.085Z,100.00
2018-10-01T07:12:07.441Z,100.00
2018-10-01T07:15:11.763Z,100.00
2018-10-01T07:18:16.176Z,100.00
2018-10-01T07:21:20.488Z,100.00
2018-10-01T07:24:24.938Z,100.00
2018-10-01T07:27:29.303Z,100.00
2018-10-01T07:30:33.629Z,100.00
2018-10-01T07:33:38.114Z,100.00
2018-10-01T07:36:42.583Z,100.00
2018-10-01T07:39:47.114Z,100.00
2018-10-01T07:42:51.493Z,100.00
2018-10-01T07:45:55.813Z,100.00
2018-10-01T07:49:00.152Z,100.00
2018-10-01T07:52:04.551Z,100.00
2018-10-01T07:55:09.086Z,100.00
2018-10-01T07:58:13.491Z,100.00
2018-10-01T08:01:17.896Z,100.00
2018-10-01T08:04:22.273Z,100.00
2018-10-01T08:07:26.600Z,100.00
2018-10-01T08:10:31.195Z,100.00
2018-10-01T08:13:35.744Z,100.00
2018-10-01T08:16:40.387Z,100.00
2018-10-01T08:19:44.807Z,100.00
2018-10-01T08:22:49.370Z,100.00
2018-10-01T08:25:53.679Z,100.00
2018-10-01T08:28:58.380Z,100.00
2018-10-01T08:32:02.903Z,100.00
2018-10-01T08:35:07.363Z,100.00
2018-10-01T08:38:11.930Z,100.00
2018-10-01T08:41:16.230Z,100.00
2018-10-01T08:44:20.713Z,100.00
2018-10-01T08:47:25.229Z,100.00
2018-10-01T08:50:39.489Z,100.00
2018-10-01T08:54:47.886Z,100.00
2018-10-01T08:57:52.401Z,100.00
2018-10-01T09:00:56.969Z,100.00
2018-10-01T09:04:01.288Z,100.00
2018-10-01T09:07:06.307Z,100.00
2018-10-01T09:10:10.928Z,100.00
2018-10-01T09:13:15.374Z,100.00
2018-10-01T09:16:19.878Z,100.00
2018-10-01T09:19:24.337Z,100.00
2018-10-01T09:22:28.659Z,100.00
2018-10-01T09:25:34.419Z,100.00
2018-10-01T09:28:39.001Z,100.00
2018-10-01T09:31:43.827Z,100.00
2018-10-01T09:34:52.519Z,100.00
2018-10-01T09:37:57.055Z,100.00
2018-10-01T09:41:01.878Z,100.00
2018-10-01T09:44:06.385Z,99.81
2018-10-01T09:47:10.985Z,100.00
2018-10-01T09:50:15.433Z,100.00
2018-10-01T09:53:19.932Z,100.00
2018-10-01T09:56:24.683Z,99.75
2018-10-01T09:59:29.249Z,100.00
2018-10-01T10:02:33.844Z,100.00
2018-10-01T10:05:39.330Z,100.00
2018-10-01T10:08:43.953Z,99.88
2018-10-01T10:11:48.384Z,100.00
2018-10-01T10:14:53.072Z,100.00
2018-10-01T10:17:57.610Z,100.00
2018-10-01T10:21:02.148Z,100.00
2018-10-01T10:24:07.425Z,100.00
2018-10-01T10:27:11.919Z,100.00
2018-10-01T10:30:16.298Z,100.00
2018-10-01T10:33:21.003Z,100.00
2018-10-01T10:36:25.399Z,99.25
2018-10-01T10:39:29.861Z,99.87
2018-10-01T10:42:34.265Z,100.00
2018-10-01T10:45:39.438Z,100.00
2018-10-01T10:48:44.007Z,100.00
2018-10-01T10:51:48.479Z,100.00
2018-10-01T10:54:53.301Z,100.00
2018-10-01T10:57:58.093Z,100.00
2018-10-01T11:01:02.540Z,100.00
2018-10-01T11:04:06.972Z,100.00
2018-10-01T11:07:11.505Z,100.00
2018-10-01T11:10:15.756Z,100.00
2018-10-01T11:13:20.241Z,100.00
2018-10-01T11:16:24.920Z,99.41
2018-10-01T11:19:29.335Z,100.00
2018-10-01T11:22:33.679Z,98.23
2018-10-01T11:25:38.726Z,97.58
2018-10-01T11:28:43.154Z,97.16
2018-10-01T11:31:47.792Z,95.90
2018-10-01T11:34:52.699Z,96.42
2018-10-01T11:37:56.942Z,94.40
2018-10-01T11:41:01.357Z,92.94
2018-10-01T11:44:05.998Z,93.31
2018-10-01T11:47:10.419Z,91.95
2018-10-01T11:50:14.848Z,92.39
2018-10-01T11:53:19.434Z,92.56
2018-10-01T11:56:24.050Z,90.33
2018-10-01T11:59:28.377Z,88.47
2018-10-01T12:02:33.097Z,89.27
2018-10-01T12:05:38.255Z,89.57
2018-10-01T12:08:42.807Z,88.81
2018-10-01T12:11:47.172Z,87.72
2018-10-01T12:14:51.593Z,87.06
2018-10-01T12:17:56.360Z,85.78
2018-10-01T12:21:00.962Z,83.84
2018-10-01T12:24:05.807Z,83.03
2018-10-01T12:27:10.983Z,83.94
2018-10-01T12:30:43.440Z,84.37
2018-10-01T12:33:50.513Z,85.66
2018-10-01T12:36:54.850Z,87.66
2018-10-01T12:39:59.149Z,88.39
2018-10-01T12:43:03.499Z,88.98
2018-10-01T12:46:07.895Z,90.54
2018-10-01T12:49:12.250Z,89.65
2018-10-01T12:52:16.961Z,90.18
2018-10-01T12:55:21.259Z,90.14
2018-10-01T12:58:25.657Z,87.82
2018-10-01T13:01:30.250Z,88.15
2018-10-01T13:04:34.779Z,86.73
2018-10-01T13:07:39.222Z,88.47
2018-10-01T13:10:43.648Z,86.92
2018-10-01T13:13:48.028Z,86.28
2018-10-01T13:16:53.454Z,86.00
2018-10-01T13:19:57.940Z,83.50
2018-10-01T13:23:02.336Z,84.14
2018-10-01T13:26:07.228Z,85.03
2018-10-01T13:29:11.612Z,85.22
2018-10-01T13:32:18.979Z,85.92
2018-10-01T13:35:23.708Z,87.76
2018-10-01T13:38:33.804Z,89.63
2018-10-01T13:41:48.542Z,90.83
2018-10-01T13:44:55.317Z,92.26
2018-10-01T13:48:06.425Z,94.06
2018-10-01T13:51:16.902Z,94.04
2018-10-01T13:54:32.131Z,94.56
2018-10-01T13:57:45.104Z,95.78
2018-10-01T14:00:50.957Z,95.03
2018-10-01T14:03:59.026Z,93.99
2018-10-01T14:07:11.991Z,93.00
2018-10-01T14:10:50.103Z,90.18
2018-10-01T14:14:00.941Z,88.64
2018-10-01T14:17:12.827Z,87.69
2018-10-01T14:20:24.877Z,90.01
2018-10-01T14:23:36.804Z,90.64
2018-10-01T14:30:04.329Z,89.07
2018-10-01T14:33:09.030Z,89.61
2018-10-01T14:36:13.408Z,86.67
2018-10-01T14:39:17.810Z,89.77
2018-10-01T14:42:22.231Z,88.70
2018-10-01T14:45:26.589Z,88.51
2018-10-01T14:48:31.025Z,90.36
2018-10-01T14:51:35.304Z,90.34
2018-10-01T14:54:39.658Z,88.99
2018-10-01T14:57:44.082Z,89.07
2018-10-01T15:00:48.557Z,90.43
2018-10-01T15:03:53.096Z,89.47
2018-10-01T15:06:57.410Z,90.56
2018-10-01T15:10:01.825Z,88.87
2018-10-01T15:13:06.385Z,89.07
2018-10-01T15:16:10.818Z,90.97
2018-10-01T15:19:15.187Z,91.78
2018-10-01T15:22:19.536Z,91.17
2018-10-01T15:25:23.972Z,92.58
2018-10-01T15:28:28.383Z,94.95
2018-10-01T15:31:32.926Z,94.28
2018-10-01T15:34:37.377Z,94.68
2018-10-01T15:37:41.946Z,95.39
2018-10-01T15:40:46.312Z,96.10
2018-10-01T15:43:50.708Z,97.32
2018-10-01T15:46:55.191Z,96.01
2018-10-01T15:49:59.589Z,95.34
2018-10-01T15:54:06.678Z,96.29
2018-10-01T15:57:11.051Z,96.10
2018-10-01T16:00:15.468Z,95.90
2018-10-01T16:03:19.929Z,97.24
2018-10-01T16:06:24.234Z,97.15
2018-10-01T16:09:28.619Z,96.17
2018-10-01T16:12:32.946Z,97.37
2018-10-01T16:15:37.268Z,95.41
2018-10-01T16:18:41.651Z,95.89
2018-10-01T16:24:55.659Z,96.46
2018-10-01T16:28:00.017Z,95.72
2018-10-01T16:31:04.472Z,95.12
2018-10-01T16:34:08.847Z,96.29
2018-10-01T16:37:13.406Z,95.98
2018-10-01T16:40:17.703Z,95.41
2018-10-01T16:46:32.141Z,98.64
2018-10-01T16:49:36.540Z,96.91
2018-10-01T16:52:40.991Z,98.16
2018-10-01T16:55:45.316Z,99.78
2018-10-01T16:58:49.672Z,100.00
2018-10-01T17:01:53.991Z,100.00
2018-10-01T17:04:58.566Z,100.00
2018-10-01T17:08:03.364Z,100.00
2018-10-01T17:11:07.998Z,100.00
2018-10-01T17:14:12.405Z,100.00
2018-10-01T17:17:16.828Z,100.00
2018-10-01T17:20:21.220Z,100.00
2018-10-01T17:23:25.563Z,100.00
2018-10-01T17:26:30.095Z,100.00
2018-10-01T17:29:34.420Z,100.00
2018-10-01T17:32:38.757Z,100.00
2018-10-01T17:35:43.189Z,100.00
2018-10-01T17:38:47.611Z,100.00
2018-10-01T17:41:51.995Z,100.00
2018-10-01T17:44:56.416Z,100.00
2018-10-01T17:48:00.783Z,100.00
2018-10-01T17:51:05.554Z,100.00
2018-10-01T17:54:10.010Z,100.00
2018-10-01T17:57:14.279Z,100.00
2018-10-01T18:00:18.675Z,100.00
2018-10-01T18:03:22.992Z,100.00
2018-10-01T18:06:27.425Z,100.00
2018-10-01T18:09:31.799Z,100.00
2018-10-01T18:12:36.232Z,100.00
2018-10-01T18:15:40.649Z,100.00
2018-10-01T18:18:45.220Z,100.00
2018-10-01T18:21:49.619Z,100.00
2018-10-01T18:24:54.094Z,100.00
2018-10-01T18:27:58.464Z,100.00
2018-10-01T18:31:02.872Z,100.00
2018-10-01T18:34:07.288Z,100.00
2018-10-01T18:37:11.676Z,100.00
2018-10-01T18:40:16.156Z,100.00
2018-10-01T18:43:20.443Z,100.00
2018-10-01T18:46:24.914Z,100.00
2018-10-01T18:49:29.331Z,100.00
2018-10-01T18:52:33.699Z,100.00
2018-10-01T18:55:38.128Z,100.00
2018-10-01T18:58:42.489Z,100.00
2018-10-01T19:01:46.913Z,100.00
2018-10-01T19:04:51.242Z,100.00
2018-10-01T19:07:55.528Z,100.00
2018-10-01T19:10:59.833Z,100.00
2018-10-01T19:14:04.159Z,100.00
2018-10-01T19:17:08.483Z,100.00
2018-10-01T19:20:12.777Z,100.00
2018-10-01T19:23:17.204Z,100.00
2018-10-01T19:26:21.574Z,100.00
2018-10-01T19:29:25.943Z,100.00
2018-10-01T19:32:30.351Z,100.00
2018-10-01T19:35:35.087Z,100.00
2018-10-01T19:38:39.607Z,100.00
2018-10-01T19:41:43.928Z,100.00
2018-10-01T19:44:48.801Z,100.00
2018-10-01T19:47:53.228Z,100.00
2018-10-01T19:50:57.651Z,100.00
2018-10-01T19:54:02.067Z,100.00
2018-10-01T19:57:06.582Z,100.00
2018-10-01T20:00:11.085Z,100.00
2018-10-01T20:03:15.598Z,100.00
2018-10-01T20:06:19.913Z,100.00
2018-10-01T20:09:24.336Z,100.00
2018-10-01T20:12:28.680Z,100.00
2018-10-01T20:15:33.150Z,100.00
2018-10-01T20:18:37.501Z,100.00
2018-10-01T20:21:41.848Z,100.00
2018-10-01T20:24:46.240Z,100.00
2018-10-01T20:27:50.582Z,100.00
2018-10-01T20:30:54.845Z,100.00
2018-10-01T20:33:59.159Z,100.00
2018-10-01T20:37:03.984Z,100.00
2018-10-01T20:40:09.502Z,100.00
2018-10-01T20:43:13.901Z,100.00
2018-10-01T20:46:18.307Z,100.00
2018-10-01T20:49:23.817Z,100.00
2018-10-01T20:52:28.360Z,100.00
2018-10-01T20:55:32.550Z,100.00
2018-10-01T20:58:37.060Z,100.00
2018-10-01T21:01:41.412Z,100.00
2018-10-01T21:04:45.710Z,100.00
2018-10-01T21:07:50.208Z,100.00
2018-10-01T21:10:54.574Z,100.00
2018-10-01T21:13:58.900Z,100.00
2018-10-01T21:17:03.218Z,100.00
2018-10-01T21:20:07.536Z,100.00
2018-10-01T21:23:11.833Z,100.00
2018-10-01T21:26:16.176Z,100.00
2018-10-01T21:29:20.517Z,100.00
2018-10-01T21:32:24.975Z,100.00
2018-10-01T21:35:29.420Z,100.00
2018-10-01T21:38:33.803Z,100.00
2018-10-01T21:41:38.112Z,100.00
2018-10-01T21:44:42.518Z,100.00
2018-10-01T21:47:46.823Z,100.00
2018-10-01T21:50:51.120Z,100.00
2018-10-01T21:53:55.453Z,100.00
2018-10-01T21:57:00.029Z,100.00
2018-10-01T22:00:05.602Z,100.00
2018-10-01T22:03:10.025Z,100.00
2018-10-01T22:06:14.308Z,100.00
2018-10-01T22:09:18.593Z,100.00
2018-10-01T22:12:22.911Z,100.00
2018-10-01T22:15:31.286Z,100.00
2018-10-01T22:18:35.593Z,100.00
2018-10-01T22:21:40.126Z,100.00
2018-10-01T22:24:44.406Z,100.00
2018-10-01T22:27:48.700Z,100.00
2018-10-01T22:30:53.022Z,100.00
2018-10-01T22:33:57.320Z,100.00
2018-10-01T22:37:01.696Z,100.00
2018-10-01T22:40:06.360Z,100.00
2018-10-01T22:43:10.663Z,100.00
2018-10-01T22:46:15.018Z,100.00
2018-10-01T22:49:19.375Z,100.00
2018-10-01T22:52:23.707Z,100.00
2018-10-01T22:55:28.032Z,100.00
2018-10-01T22:58:32.321Z,100.00
2018-10-01T23:01:36.616Z,100.00
2018-10-01T23:04:40.903Z,100.00
2018-10-01T23:07:45.225Z,100.00
2018-10-01T23:10:49.506Z,100.00
2018-10-01T23:13:53.836Z,100.00
2018-10-01T23:16:58.132Z,100.00
2018-10-01T23:20:02.416Z,100.00
2018-10-01T23:23:06.716Z,100.00
2018-10-01T23:26:10.999Z,100.00
2018-10-01T23:29:15.292Z,100.00
2018-10-01T23:32:19.625Z,100.00
2018-10-01T23:35:23.879Z,100.00
2018-10-01T23:38:28.220Z,100.00
2018-10-01T23:41:32.472Z,100.00
2018-10-01T23:44:36.762Z,100.00
2018-10-01T23:47:41.106Z,100.00
2018-10-01T23:50:45.374Z,100.00
2018-10-01T23:53:49.659Z,100.00
2018-10-01T23:56:54.009Z,100.00
2018-10-01T23:59:58.377Z,100.00
